Terminal Aerodrome Forecast
Issued by NWS

Home | Current Version | Previous Version | Text Only | Print | Product List | Glossary On
Versions: 1 2 3 4 5 6 7 8 9 10 11 12 13 14 15 16
168
FTAK31 PAJN 131140
TAFAGY
TAF
PAGY 131140Z 1312/1412 21008KT P6SM VCSH OVC060
     FM131500 VRB06KT P6SM SCT030 OVC050
     FM131800 04008KT P6SM SCT030 BKN050 OVC070
     FM140600 04014KT P6SM VCSH BKN030 OVC050
      AMD LTD TO CLD VIS AND WIND=

USA.gov is the U.S. government's official web portal to all federal, state and local government web resources and services.